This is the latest recevied weather packets stored in our database for station/object YM2KRB-11. If no packets are shown the sender has not sent any weather packets the latest 10 day(s).
| Time | Temp. | Humidity | Pressure | Rain* | Wind** | Luminosity | Snow |
|---|---|---|---|---|---|---|---|
| 1777644020 | 11.67° C | 61% | 942.6 hPa | - | - | - | - |
| 1777642819 | 13.33° C | 60% | 942.5 hPa | - | - | - | - |
| 1777641618 | 10.56° C | 74% | 942.6 hPa | - | - | - | - |
| 1777638016 | 14.44° C | 64% | 942.2 hPa | - | - | - | - |
| 1777635614 | 12.22° C | 64% | 942.1 hPa | - | - | - | - |
| 1777634415 | 16.11° C | 58% | 942.1 hPa | - | - | - | - |
| 1777633213 | 14.44° C | 62% | 942.1 hPa | - | - | - | - |
| 1777632012 | 12.78° C | 63% | 941.8 hPa | - | - | - | - |
| 1777630811 | 13.89° C | 60% | 941.8 hPa | - | - | - | - |
| 1777629611 | 13.89° C | 60% | 941.7 hPa | - | - | - | - |
| 1777628410 | 13.33° C | 61% | 941.7 hPa | - | - | - | - |
| 1777627209 | 12.78° C | 60% | 941.7 hPa | - | - | - | - |
| 1777626008 | 17.78° C | 50% | 941.7 hPa | - | - | - | - |
| 1777624808 | 11.67° C | 64% | 941.8 hPa | - | - | - | - |
| 1777623607 | 12.22° C | 61% | 941.6 hPa | - | - | - | - |
| 1777622406 | 12.78° C | 58% | 941.4 hPa | - | - | - | - |
| 1777621205 | 13.33° C | 58% | 941.4 hPa | - | - | - | - |
| 1777620004 | 12.78° C | 60% | 941 hPa | - | - | - | - |
| 1777618807 | 12.22° C | 57% | 941.3 hPa | - | - | - | - |
| 1777617603 | 13.33° C | 56% | 941.1 hPa | - | - | - | - |
| 1777616402 | 13.33° C | 56% | 940.7 hPa | - | - | - | - |
| 1777615201 | 12.78° C | 58% | 940.8 hPa | - | - | - | - |
| 1777614000 | 11.11° C | 62% | 940.5 hPa | - | - | - | - |
| 1777612800 | 10.56° C | 61% | 940.1 hPa | - | - | - | - |
| 1777611599 | 10.56° C | 56% | 940.7 hPa | - | - | - | - |
* Rain since midnight (hover to see other rain measurements)
** Current wind speed in m/s (hover to see current wind gust speed)